sensor_id;sensor_type;location;lat;lon;timestamp;P1;durP1;ratioP1;P2;durP2;ratioP2
43628;SDS011;56545;48.224;11.678;2023-01-08T00:00:56;7.43;;;4.00;;
43628;SDS011;56545;48.224;11.678;2023-01-08T00:03:22;8.57;;;4.63;;
43628;SDS011;56545;48.224;11.678;2023-01-08T00:05:48;10.30;;;4.47;;
43628;SDS011;56545;48.224;11.678;2023-01-08T00:08:14;9.13;;;4.57;;
43628;SDS011;56545;48.224;11.678;2023-01-08T00:10:40;7.95;;;4.10;;
43628;SDS011;56545;48.224;11.678;2023-01-08T00:13:06;7.28;;;3.97;;
43628;SDS011;56545;48.224;11.678;2023-01-08T00:15:32;8.90;;;4.47;;
43628;SDS011;56545;48.224;11.678;2023-01-08T00:17:59;10.48;;;4.35;;
43628;SDS011;56545;48.224;11.678;2023-01-08T00:20:24;8.38;;;4.35;;
43628;SDS011;56545;48.224;11.678;2023-01-08T00:22:51;8.85;;;4.60;;
43628;SDS011;56545;48.224;11.678;2023-01-08T00:25:17;9.65;;;4.10;;
43628;SDS011;56545;48.224;11.678;2023-01-08T00:27:44;8.48;;;4.30;;
43628;SDS011;56545;48.224;11.678;2023-01-08T00:30:10;7.32;;;3.97;;
43628;SDS011;56545;48.224;11.678;2023-01-08T00:32:37;7.63;;;4.00;;
43628;SDS011;56545;48.224;11.678;2023-01-08T00:35:03;8.02;;;4.38;;
43628;SDS011;56545;48.224;11.678;2023-01-08T00:37:29;7.43;;;3.95;;
43628;SDS011;56545;48.224;11.678;2023-01-08T00:39:55;12.27;;;5.10;;
43628;SDS011;56545;48.224;11.678;2023-01-08T00:42:21;8.32;;;4.18;;
43628;SDS011;56545;48.224;11.678;2023-01-08T00:44:47;8.18;;;4.15;;
43628;SDS011;56545;48.224;11.678;2023-01-08T00:47:13;7.47;;;4.00;;
43628;SDS011;56545;48.224;11.678;2023-01-08T00:49:39;9.10;;;4.38;;
43628;SDS011;56545;48.224;11.678;2023-01-08T00:52:05;7.95;;;3.65;;
43628;SDS011;56545;48.224;11.678;2023-01-08T00:54:31;8.75;;;3.97;;
43628;SDS011;56545;48.224;11.678;2023-01-08T00:56:57;7.30;;;3.53;;
43628;SDS011;56545;48.224;11.678;2023-01-08T00:59:23;10.60;;;4.10;;
43628;SDS011;56545;48.224;11.678;2023-01-08T01:01:49;7.15;;;3.63;;
43628;SDS011;56545;48.224;11.678;2023-01-08T01:04:16;8.93;;;4.20;;
43628;SDS011;56545;48.224;11.678;2023-01-08T01:06:42;7.40;;;3.88;;
43628;SDS011;56545;48.224;11.678;2023-01-08T01:09:08;8.00;;;3.70;;
43628;SDS011;56545;48.224;11.678;2023-01-08T01:11:35;8.40;;;3.75;;
43628;SDS011;56545;48.224;11.678;2023-01-08T01:14:01;8.25;;;3.78;;
43628;SDS011;56545;48.224;11.678;2023-01-08T01:16:27;7.07;;;3.50;;
43628;SDS011;56545;48.224;11.678;2023-01-08T01:18:53;7.18;;;3.88;;
43628;SDS011;56545;48.224;11.678;2023-01-08T01:21:24;6.93;;;3.40;;
43628;SDS011;56545;48.224;11.678;2023-01-08T01:23:57;7.60;;;4.00;;
43628;SDS011;56545;48.224;11.678;2023-01-08T01:26:25;9.05;;;3.85;;
43628;SDS011;56545;48.224;11.678;2023-01-08T01:28:52;7.20;;;3.40;;
43628;SDS011;56545;48.224;11.678;2023-01-08T01:31:20;9.57;;;3.55;;
43628;SDS011;56545;48.224;11.678;2023-01-08T01:33:46;8.05;;;4.22;;
43628;SDS011;56545;48.224;11.678;2023-01-08T01:36:13;8.40;;;4.47;;
43628;SDS011;56545;48.224;11.678;2023-01-08T01:38:42;8.10;;;4.43;;
43628;SDS011;56545;48.224;11.678;2023-01-08T01:41:25;8.68;;;4.70;;
43628;SDS011;56545;48.224;11.678;2023-01-08T01:43:54;8.02;;;4.25;;
43628;SDS011;56545;48.224;11.678;2023-01-08T01:49:02;9.02;;;4.10;;
43628;SDS011;56545;48.224;11.678;2023-01-08T01:51:50;8.10;;;4.20;;
43628;SDS011;56545;48.224;11.678;2023-01-08T01:54:18;7.05;;;3.65;;
43628;SDS011;56545;48.224;11.678;2023-01-08T01:56:45;8.25;;;4.03;;
43628;SDS011;56545;48.224;11.678;2023-01-08T01:59:11;8.27;;;4.40;;
43628;SDS011;56545;48.224;11.678;2023-01-08T02:01:38;8.10;;;3.78;;
43628;SDS011;56545;48.224;11.678;2023-01-08T02:04:05;6.85;;;3.30;;
43628;SDS011;56545;48.224;11.678;2023-01-08T02:06:36;6.93;;;3.50;;
43628;SDS011;56545;48.224;11.678;2023-01-08T02:12:14;7.25;;;3.70;;
43628;SDS011;56545;48.224;11.678;2023-01-08T02:18:24;8.10;;;3.80;;
43628;SDS011;56545;48.224;11.678;2023-01-08T02:20:53;7.22;;;3.60;;
43628;SDS011;56545;48.224;11.678;2023-01-08T02:28:33;6.40;;;3.30;;
43628;SDS011;56545;48.224;11.678;2023-01-08T02:31:04;7.18;;;3.75;;
43628;SDS011;56545;48.224;11.678;2023-01-08T02:33:30;7.55;;;3.47;;
43628;SDS011;56545;48.224;11.678;2023-01-08T02:38:49;6.57;;;3.30;;
43628;SDS011;56545;48.224;11.678;2023-01-08T02:41:18;7.38;;;3.53;;
43628;SDS011;56545;48.224;11.678;2023-01-08T02:46:21;6.95;;;3.40;;
43628;SDS011;56545;48.224;11.678;2023-01-08T02:48:52;7.60;;;3.70;;
43628;SDS011;56545;48.224;11.678;2023-01-08T02:51:23;6.90;;;3.58;;
43628;SDS011;56545;48.224;11.678;2023-01-08T02:53:56;6.22;;;3.13;;
43628;SDS011;56545;48.224;11.678;2023-01-08T02:56:26;6.43;;;3.20;;
43628;SDS011;56545;48.224;11.678;2023-01-08T02:58:55;8.75;;;3.10;;
43628;SDS011;56545;48.224;11.678;2023-01-08T03:01:23;6.13;;;2.88;;
43628;SDS011;56545;48.224;11.678;2023-01-08T03:03:52;5.93;;;3.10;;
43628;SDS011;56545;48.224;11.678;2023-01-08T03:06:22;7.45;;;3.20;;
43628;SDS011;56545;48.224;11.678;2023-01-08T03:08:49;7.32;;;3.40;;
43628;SDS011;56545;48.224;11.678;2023-01-08T03:11:18;6.03;;;3.00;;
43628;SDS011;56545;48.224;11.678;2023-01-08T03:13:50;7.13;;;3.17;;
43628;SDS011;56545;48.224;11.678;2023-01-08T03:16:26;6.88;;;2.97;;
43628;SDS011;56545;48.224;11.678;2023-01-08T03:19:35;5.55;;;2.90;;
43628;SDS011;56545;48.224;11.678;2023-01-08T03:22:00;6.70;;;3.17;;
43628;SDS011;56545;48.224;11.678;2023-01-08T03:24:28;5.88;;;2.88;;
43628;SDS011;56545;48.224;11.678;2023-01-08T03:26:57;5.75;;;2.70;;
43628;SDS011;56545;48.224;11.678;2023-01-08T03:29:26;7.45;;;3.00;;
43628;SDS011;56545;48.224;11.678;2023-01-08T03:31:54;4.97;;;2.40;;
43628;SDS011;56545;48.224;11.678;2023-01-08T03:34:23;6.03;;;2.60;;
43628;SDS011;56545;48.224;11.678;2023-01-08T03:36:51;6.30;;;2.80;;
43628;SDS011;56545;48.224;11.678;2023-01-08T03:39:23;5.88;;;2.70;;
43628;SDS011;56545;48.224;11.678;2023-01-08T03:41:55;5.63;;;2.65;;
43628;SDS011;56545;48.224;11.678;2023-01-08T03:44:23;6.60;;;2.60;;
43628;SDS011;56545;48.224;11.678;2023-01-08T03:46:50;5.43;;;2.60;;
43628;SDS011;56545;48.224;11.678;2023-01-08T03:49:18;6.43;;;2.63;;
43628;SDS011;56545;48.224;11.678;2023-01-08T03:51:46;5.03;;;2.50;;
43628;SDS011;56545;48.224;11.678;2023-01-08T03:54:13;6.22;;;2.63;;
43628;SDS011;56545;48.224;11.678;2023-01-08T03:56:42;5.72;;;2.33;;
43628;SDS011;56545;48.224;11.678;2023-01-08T03:59:09;6.03;;;2.55;;
43628;SDS011;56545;48.224;11.678;2023-01-08T04:01:35;6.55;;;2.40;;
43628;SDS011;56545;48.224;11.678;2023-01-08T04:04:01;5.80;;;2.63;;
43628;SDS011;56545;48.224;11.678;2023-01-08T04:06:27;5.78;;;2.30;;
43628;SDS011;56545;48.224;11.678;2023-01-08T04:08:53;4.82;;;2.28;;
43628;SDS011;56545;48.224;11.678;2023-01-08T04:11:19;6.50;;;2.60;;
43628;SDS011;56545;48.224;11.678;2023-01-08T04:13:45;5.40;;;2.05;;
43628;SDS011;56545;48.224;11.678;2023-01-08T04:16:11;4.68;;;2.28;;
43628;SDS011;56545;48.224;11.678;2023-01-08T04:18:37;5.28;;;2.42;;
43628;SDS011;56545;48.224;11.678;2023-01-08T04:21:03;4.75;;;2.20;;
43628;SDS011;56545;48.224;11.678;2023-01-08T04:23:29;5.00;;;2.10;;
43628;SDS011;56545;48.224;11.678;2023-01-08T04:25:55;5.68;;;2.50;;
43628;SDS011;56545;48.224;11.678;2023-01-08T04:28:21;6.03;;;2.50;;
43628;SDS011;56545;48.224;11.678;2023-01-08T04:30:48;6.10;;;2.17;;
43628;SDS011;56545;48.224;11.678;2023-01-08T04:33:14;8.43;;;4.78;;
43628;SDS011;56545;48.224;11.678;2023-01-08T04:35:40;14.50;;;8.85;;
43628;SDS011;56545;48.224;11.678;2023-01-08T04:38:06;8.48;;;4.40;;
43628;SDS011;56545;48.224;11.678;2023-01-08T04:40:32;12.15;;;6.70;;
43628;SDS011;56545;48.224;11.678;2023-01-08T04:42:58;7.10;;;2.67;;
43628;SDS011;56545;48.224;11.678;2023-01-08T04:45:24;5.55;;;2.42;;
43628;SDS011;56545;48.224;11.678;2023-01-08T04:47:56;5.18;;;2.00;;
43628;SDS011;56545;48.224;11.678;2023-01-08T04:50:23;4.00;;;1.92;;
43628;SDS011;56545;48.224;11.678;2023-01-08T04:52:49;5.25;;;2.08;;
43628;SDS011;56545;48.224;11.678;2023-01-08T04:55:15;5.32;;;1.90;;
43628;SDS011;56545;48.224;11.678;2023-01-08T04:57:41;4.47;;;1.92;;
43628;SDS011;56545;48.224;11.678;2023-01-08T05:00:08;4.05;;;1.75;;
43628;SDS011;56545;48.224;11.678;2023-01-08T05:02:34;4.07;;;1.70;;
43628;SDS011;56545;48.224;11.678;2023-01-08T05:05:00;3.85;;;1.80;;
43628;SDS011;56545;48.224;11.678;2023-01-08T05:07:26;3.97;;;1.70;;
43628;SDS011;56545;48.224;11.678;2023-01-08T05:09:52;4.55;;;1.70;;
43628;SDS011;56545;48.224;11.678;2023-01-08T05:12:18;4.07;;;1.70;;
43628;SDS011;56545;48.224;11.678;2023-01-08T05:14:44;4.93;;;1.75;;
43628;SDS011;56545;48.224;11.678;2023-01-08T05:17:10;4.80;;;1.70;;
43628;SDS011;56545;48.224;11.678;2023-01-08T05:19:36;3.55;;;1.75;;
43628;SDS011;56545;48.224;11.678;2023-01-08T05:22:01;3.17;;;1.45;;
43628;SDS011;56545;48.224;11.678;2023-01-08T05:24:27;5.47;;;1.95;;
43628;SDS011;56545;48.224;11.678;2023-01-08T05:26:53;3.85;;;1.75;;
43628;SDS011;56545;48.224;11.678;2023-01-08T05:29:19;4.35;;;2.10;;
43628;SDS011;56545;48.224;11.678;2023-01-08T05:31:45;4.68;;;1.83;;
43628;SDS011;56545;48.224;11.678;2023-01-08T05:34:11;6.82;;;2.15;;
43628;SDS011;56545;48.224;11.678;2023-01-08T05:36:37;5.55;;;2.70;;
43628;SDS011;56545;48.224;11.678;2023-01-08T05:39:03;5.93;;;2.40;;
43628;SDS011;56545;48.224;11.678;2023-01-08T05:41:29;5.28;;;2.30;;
43628;SDS011;56545;48.224;11.678;2023-01-08T05:43:55;5.10;;;2.00;;
43628;SDS011;56545;48.224;11.678;2023-01-08T05:46:21;4.32;;;1.90;;
43628;SDS011;56545;48.224;11.678;2023-01-08T05:48:47;5.00;;;2.20;;
43628;SDS011;56545;48.224;11.678;2023-01-08T05:51:13;3.63;;;1.75;;
43628;SDS011;56545;48.224;11.678;2023-01-08T05:53:38;3.65;;;1.67;;
43628;SDS011;56545;48.224;11.678;2023-01-08T05:56:05;3.58;;;1.52;;
43628;SDS011;56545;48.224;11.678;2023-01-08T05:58:33;3.42;;;1.63;;
43628;SDS011;56545;48.224;11.678;2023-01-08T06:01:06;3.45;;;1.70;;
43628;SDS011;56545;48.224;11.678;2023-01-08T06:03:35;3.67;;;1.73;;
43628;SDS011;56545;48.224;11.678;2023-01-08T06:06:03;3.90;;;1.90;;
43628;SDS011;56545;48.224;11.678;2023-01-08T06:08:30;4.15;;;1.63;;
43628;SDS011;56545;48.224;11.678;2023-01-08T06:11:01;3.80;;;1.50;;
43628;SDS011;56545;48.224;11.678;2023-01-08T06:13:28;4.15;;;1.60;;
43628;SDS011;56545;48.224;11.678;2023-01-08T06:15:54;3.13;;;1.50;;
43628;SDS011;56545;48.224;11.678;2023-01-08T06:18:22;4.32;;;1.70;;
43628;SDS011;56545;48.224;11.678;2023-01-08T06:20:48;3.53;;;1.40;;
43628;SDS011;56545;48.224;11.678;2023-01-08T06:23:14;5.25;;;1.70;;
43628;SDS011;56545;48.224;11.678;2023-01-08T06:25:40;3.53;;;1.50;;
43628;SDS011;56545;48.224;11.678;2023-01-08T06:28:05;3.60;;;1.50;;
43628;SDS011;56545;48.224;11.678;2023-01-08T06:30:32;4.28;;;1.80;;
43628;SDS011;56545;48.224;11.678;2023-01-08T06:32:58;4.90;;;1.73;;
43628;SDS011;56545;48.224;11.678;2023-01-08T06:35:25;3.60;;;1.33;;
43628;SDS011;56545;48.224;11.678;2023-01-08T06:37:53;4.90;;;2.00;;
43628;SDS011;56545;48.224;11.678;2023-01-08T06:40:20;3.78;;;1.73;;
43628;SDS011;56545;48.224;11.678;2023-01-08T06:42:46;3.80;;;1.70;;
43628;SDS011;56545;48.224;11.678;2023-01-08T06:45:12;4.18;;;1.60;;
43628;SDS011;56545;48.224;11.678;2023-01-08T06:47:38;2.95;;;1.45;;
43628;SDS011;56545;48.224;11.678;2023-01-08T06:50:04;4.40;;;1.70;;
43628;SDS011;56545;48.224;11.678;2023-01-08T06:52:31;3.88;;;1.67;;
43628;SDS011;56545;48.224;11.678;2023-01-08T06:54:57;4.00;;;1.58;;
43628;SDS011;56545;48.224;11.678;2023-01-08T06:57:23;4.32;;;1.77;;
43628;SDS011;56545;48.224;11.678;2023-01-08T06:59:49;4.28;;;1.85;;
43628;SDS011;56545;48.224;11.678;2023-01-08T07:02:15;4.00;;;1.80;;
43628;SDS011;56545;48.224;11.678;2023-01-08T07:04:42;6.13;;;1.50;;
43628;SDS011;56545;48.224;11.678;2023-01-08T07:07:09;4.43;;;1.73;;
43628;SDS011;56545;48.224;11.678;2023-01-08T07:09:38;3.08;;;1.42;;
43628;SDS011;56545;48.224;11.678;2023-01-08T07:12:04;3.83;;;1.63;;
43628;SDS011;56545;48.224;11.678;2023-01-08T07:14:32;4.68;;;2.00;;
43628;SDS011;56545;48.224;11.678;2023-01-08T07:16:58;4.50;;;2.00;;
43628;SDS011;56545;48.224;11.678;2023-01-08T07:19:24;4.43;;;1.90;;
43628;SDS011;56545;48.224;11.678;2023-01-08T07:21:50;4.43;;;2.28;;
43628;SDS011;56545;48.224;11.678;2023-01-08T07:24:16;5.00;;;2.05;;
43628;SDS011;56545;48.224;11.678;2023-01-08T07:26:42;4.25;;;1.92;;
43628;SDS011;56545;48.224;11.678;2023-01-08T07:29:08;5.85;;;1.77;;
43628;SDS011;56545;48.224;11.678;2023-01-08T07:31:34;4.78;;;2.03;;
43628;SDS011;56545;48.224;11.678;2023-01-08T07:34:00;5.35;;;2.00;;
43628;SDS011;56545;48.224;11.678;2023-01-08T07:36:26;5.75;;;1.90;;
43628;SDS011;56545;48.224;11.678;2023-01-08T07:38:52;3.97;;;1.92;;
43628;SDS011;56545;48.224;11.678;2023-01-08T07:41:17;4.68;;;2.20;;
43628;SDS011;56545;48.224;11.678;2023-01-08T07:43:45;4.88;;;2.03;;
43628;SDS011;56545;48.224;11.678;2023-01-08T07:46:12;4.45;;;1.98;;
43628;SDS011;56545;48.224;11.678;2023-01-08T07:48:38;4.35;;;1.80;;
43628;SDS011;56545;48.224;11.678;2023-01-08T07:51:04;4.53;;;2.00;;
43628;SDS011;56545;48.224;11.678;2023-01-08T07:53:32;4.32;;;2.00;;
43628;SDS011;56545;48.224;11.678;2023-01-08T07:56:02;5.05;;;2.10;;
43628;SDS011;56545;48.224;11.678;2023-01-08T07:58:32;4.68;;;1.95;;
43628;SDS011;56545;48.224;11.678;2023-01-08T08:00:59;4.50;;;1.83;;
43628;SDS011;56545;48.224;11.678;2023-01-08T08:03:25;4.85;;;1.67;;
43628;SDS011;56545;48.224;11.678;2023-01-08T08:05:51;3.65;;;1.52;;
43628;SDS011;56545;48.224;11.678;2023-01-08T08:08:17;4.35;;;1.80;;
43628;SDS011;56545;48.224;11.678;2023-01-08T08:10:44;3.08;;;1.20;;
43628;SDS011;56545;48.224;11.678;2023-01-08T08:13:10;3.35;;;1.50;;
43628;SDS011;56545;48.224;11.678;2023-01-08T08:15:37;4.68;;;1.80;;
43628;SDS011;56545;48.224;11.678;2023-01-08T08:18:04;2.65;;;1.33;;
43628;SDS011;56545;48.224;11.678;2023-01-08T08:20:30;3.83;;;1.60;;
43628;SDS011;56545;48.224;11.678;2023-01-08T08:23:03;4.15;;;1.50;;
43628;SDS011;56545;48.224;11.678;2023-01-08T08:25:34;3.22;;;1.50;;
43628;SDS011;56545;48.224;11.678;2023-01-08T08:28:00;4.43;;;1.50;;
43628;SDS011;56545;48.224;11.678;2023-01-08T08:30:27;4.10;;;1.58;;
43628;SDS011;56545;48.224;11.678;2023-01-08T08:32:54;5.03;;;1.83;;
43628;SDS011;56545;48.224;11.678;2023-01-08T08:35:22;4.38;;;1.92;;
43628;SDS011;56545;48.224;11.678;2023-01-08T08:37:48;6.25;;;1.80;;
43628;SDS011;56545;48.224;11.678;2023-01-08T08:40:14;4.00;;;1.70;;
43628;SDS011;56545;48.224;11.678;2023-01-08T08:42:40;4.68;;;1.98;;
43628;SDS011;56545;48.224;11.678;2023-01-08T08:45:06;3.47;;;1.70;;
43628;SDS011;56545;48.224;11.678;2023-01-08T08:47:32;3.92;;;1.73;;
43628;SDS011;56545;48.224;11.678;2023-01-08T08:49:58;5.18;;;2.08;;
43628;SDS011;56545;48.224;11.678;2023-01-08T08:52:25;4.28;;;1.88;;
43628;SDS011;56545;48.224;11.678;2023-01-08T08:54:51;3.85;;;1.80;;
43628;SDS011;56545;48.224;11.678;2023-01-08T08:57:17;6.88;;;2.40;;
43628;SDS011;56545;48.224;11.678;2023-01-08T08:59:44;6.10;;;2.53;;
43628;SDS011;56545;48.224;11.678;2023-01-08T09:02:10;7.63;;;2.17;;
43628;SDS011;56545;48.224;11.678;2023-01-08T09:04:36;4.40;;;2.10;;
43628;SDS011;56545;48.224;11.678;2023-01-08T09:07:02;3.88;;;2.00;;
43628;SDS011;56545;48.224;11.678;2023-01-08T09:09:28;4.03;;;1.90;;
43628;SDS011;56545;48.224;11.678;2023-01-08T09:11:54;4.43;;;1.80;;
43628;SDS011;56545;48.224;11.678;2023-01-08T09:14:20;3.65;;;1.70;;
43628;SDS011;56545;48.224;11.678;2023-01-08T09:16:46;5.28;;;1.92;;
43628;SDS011;56545;48.224;11.678;2023-01-08T09:19:12;4.13;;;1.83;;
43628;SDS011;56545;48.224;11.678;2023-01-08T09:21:38;4.65;;;1.90;;
43628;SDS011;56545;48.224;11.678;2023-01-08T09:24:04;5.53;;;1.90;;
43628;SDS011;56545;48.224;11.678;2023-01-08T09:26:31;4.82;;;2.03;;
43628;SDS011;56545;48.224;11.678;2023-01-08T09:28:57;4.43;;;2.17;;
43628;SDS011;56545;48.224;11.678;2023-01-08T09:31:23;5.10;;;2.25;;
43628;SDS011;56545;48.224;11.678;2023-01-08T09:33:50;5.15;;;2.20;;
43628;SDS011;56545;48.224;11.678;2023-01-08T09:36:16;5.70;;;2.33;;
43628;SDS011;56545;48.224;11.678;2023-01-08T09:38:43;5.75;;;2.70;;
43628;SDS011;56545;48.224;11.678;2023-01-08T09:41:10;6.13;;;2.50;;
43628;SDS011;56545;48.224;11.678;2023-01-08T09:43:44;5.40;;;2.78;;
43628;SDS011;56545;48.224;11.678;2023-01-08T09:46:14;5.97;;;3.00;;
43628;SDS011;56545;48.224;11.678;2023-01-08T09:48:42;5.82;;;2.78;;
43628;SDS011;56545;48.224;11.678;2023-01-08T09:51:10;7.00;;;3.53;;
43628;SDS011;56545;48.224;11.678;2023-01-08T09:53:39;8.13;;;3.50;;
43628;SDS011;56545;48.224;11.678;2023-01-08T09:56:11;7.97;;;3.00;;
43628;SDS011;56545;48.224;11.678;2023-01-08T09:58:48;6.38;;;3.15;;
43628;SDS011;56545;48.224;11.678;2023-01-08T10:01:17;7.18;;;3.25;;
43628;SDS011;56545;48.224;11.678;2023-01-08T10:06:16;7.75;;;3.10;;
43628;SDS011;56545;48.224;11.678;2023-01-08T10:08:43;5.95;;;3.10;;
43628;SDS011;56545;48.224;11.678;2023-01-08T10:11:09;5.45;;;2.75;;
43628;SDS011;56545;48.224;11.678;2023-01-08T10:13:37;6.30;;;3.00;;
43628;SDS011;56545;48.224;11.678;2023-01-08T10:16:06;5.00;;;2.40;;
43628;SDS011;56545;48.224;11.678;2023-01-08T10:18:34;6.13;;;2.60;;
43628;SDS011;56545;48.224;11.678;2023-01-08T10:21:01;7.72;;;2.92;;
43628;SDS011;56545;48.224;11.678;2023-01-08T10:23:28;4.93;;;2.40;;
43628;SDS011;56545;48.224;11.678;2023-01-08T10:26:00;5.15;;;2.63;;
43628;SDS011;56545;48.224;11.678;2023-01-08T10:30:53;6.85;;;2.50;;
43628;SDS011;56545;48.224;11.678;2023-01-08T10:33:30;7.63;;;3.92;;
43628;SDS011;56545;48.224;11.678;2023-01-08T10:36:18;5.30;;;2.63;;
43628;SDS011;56545;48.224;11.678;2023-01-08T10:38:58;5.18;;;2.45;;
43628;SDS011;56545;48.224;11.678;2023-01-08T10:41:25;6.03;;;2.63;;
43628;SDS011;56545;48.224;11.678;2023-01-08T10:43:54;6.32;;;2.90;;
43628;SDS011;56545;48.224;11.678;2023-01-08T10:46:31;4.60;;;2.42;;
43628;SDS011;56545;48.224;11.678;2023-01-08T10:49:05;5.40;;;2.72;;
43628;SDS011;56545;48.224;11.678;2023-01-08T10:51:31;4.53;;;2.28;;
43628;SDS011;56545;48.224;11.678;2023-01-08T10:53:58;5.00;;;2.38;;
43628;SDS011;56545;48.224;11.678;2023-01-08T10:56:40;6.80;;;2.72;;
43628;SDS011;56545;48.224;11.678;2023-01-08T10:59:20;5.07;;;2.60;;
43628;SDS011;56545;48.224;11.678;2023-01-08T11:01:48;5.82;;;2.60;;
43628;SDS011;56545;48.224;11.678;2023-01-08T11:04:37;6.03;;;2.65;;
43628;SDS011;56545;48.224;11.678;2023-01-08T11:07:03;5.10;;;2.40;;
43628;SDS011;56545;48.224;11.678;2023-01-08T11:09:36;5.18;;;2.50;;
43628;SDS011;56545;48.224;11.678;2023-01-08T11:12:20;5.90;;;2.30;;
43628;SDS011;56545;48.224;11.678;2023-01-08T11:15:05;6.40;;;2.65;;
43628;SDS011;56545;48.224;11.678;2023-01-08T11:17:47;6.45;;;2.95;;
43628;SDS011;56545;48.224;11.678;2023-01-08T11:22:47;6.03;;;3.13;;
43628;SDS011;56545;48.224;11.678;2023-01-08T11:25:13;6.43;;;3.22;;
43628;SDS011;56545;48.224;11.678;2023-01-08T11:27:46;6.60;;;2.83;;
43628;SDS011;56545;48.224;11.678;2023-01-08T11:30:20;5.35;;;2.58;;
43628;SDS011;56545;48.224;11.678;2023-01-08T11:35:38;3.97;;;2.20;;
43628;SDS011;56545;48.224;11.678;2023-01-08T11:38:10;6.82;;;2.17;;
43628;SDS011;56545;48.224;11.678;2023-01-08T11:43:35;4.28;;;2.10;;
43628;SDS011;56545;48.224;11.678;2023-01-08T11:46:31;3.50;;;1.65;;
43628;SDS011;56545;48.224;11.678;2023-01-08T12:06:06;3.80;;;1.70;;
43628;SDS011;56545;48.224;11.678;2023-01-08T12:08:22;3.95;;;1.70;;
43628;SDS011;56545;48.224;11.678;2023-01-08T12:16:35;4.82;;;1.77;;
43628;SDS011;56545;48.224;11.678;2023-01-08T12:35:06;19.60;;;9.13;;
43628;SDS011;56545;48.224;11.678;2023-01-08T12:40:12;9.63;;;4.32;;
43628;SDS011;56545;48.224;11.678;2023-01-08T12:42:42;10.95;;;5.63;;
43628;SDS011;56545;48.224;11.678;2023-01-08T12:45:28;6.50;;;3.17;;
43628;SDS011;56545;48.224;11.678;2023-01-08T12:48:04;6.78;;;2.83;;
43628;SDS011;56545;48.224;11.678;2023-01-08T12:53:08;18.00;;;11.20;;
43628;SDS011;56545;48.224;11.678;2023-01-08T12:55:57;7.10;;;3.28;;
43628;SDS011;56545;48.224;11.678;2023-01-08T12:58:37;5.38;;;2.78;;
43628;SDS011;56545;48.224;11.678;2023-01-08T13:01:34;4.97;;;2.40;;
43628;SDS011;56545;48.224;11.678;2023-01-08T13:04:08;5.78;;;2.20;;
43628;SDS011;56545;48.224;11.678;2023-01-08T13:06:36;25.58;;;12.88;;
43628;SDS011;56545;48.224;11.678;2023-01-08T13:09:02;23.27;;;12.25;;
43628;SDS011;56545;48.224;11.678;2023-01-08T13:11:35;13.77;;;7.25;;
43628;SDS011;56545;48.224;11.678;2023-01-08T13:16:40;6.63;;;2.30;;
43628;SDS011;56545;48.224;11.678;2023-01-08T13:19:22;6.78;;;2.08;;
43628;SDS011;56545;48.224;11.678;2023-01-08T13:21:54;4.10;;;1.67;;
43628;SDS011;56545;48.224;11.678;2023-01-08T13:24:32;4.72;;;1.85;;
43628;SDS011;56545;48.224;11.678;2023-01-08T13:27:36;3.60;;;1.88;;
43628;SDS011;56545;48.224;11.678;2023-01-08T13:29:54;8.38;;;2.00;;
43628;SDS011;56545;48.224;11.678;2023-01-08T13:34:48;5.75;;;2.60;;
43628;SDS011;56545;48.224;11.678;2023-01-08T13:37:46;6.40;;;2.90;;
43628;SDS011;56545;48.224;11.678;2023-01-08T13:43:26;8.90;;;3.58;;
43628;SDS011;56545;48.224;11.678;2023-01-08T13:48:29;11.63;;;5.60;;
43628;SDS011;56545;48.224;11.678;2023-01-08T13:51:04;10.18;;;5.22;;
43628;SDS011;56545;48.224;11.678;2023-01-08T13:53:31;10.57;;;5.10;;
43628;SDS011;56545;48.224;11.678;2023-01-08T13:55:59;11.45;;;5.95;;
43628;SDS011;56545;48.224;11.678;2023-01-08T13:58:33;11.18;;;5.28;;
43628;SDS011;56545;48.224;11.678;2023-01-08T14:01:02;10.93;;;6.20;;
43628;SDS011;56545;48.224;11.678;2023-01-08T14:03:34;9.65;;;4.97;;
43628;SDS011;56545;48.224;11.678;2023-01-08T14:06:09;9.95;;;5.32;;
43628;SDS011;56545;48.224;11.678;2023-01-08T14:08:54;10.80;;;5.40;;
43628;SDS011;56545;48.224;11.678;2023-01-08T14:11:24;9.02;;;4.60;;
43628;SDS011;56545;48.224;11.678;2023-01-08T14:13:53;7.72;;;4.15;;
43628;SDS011;56545;48.224;11.678;2023-01-08T14:16:19;8.40;;;4.10;;
43628;SDS011;56545;48.224;11.678;2023-01-08T14:18:46;7.63;;;4.07;;
43628;SDS011;56545;48.224;11.678;2023-01-08T14:21:13;8.05;;;4.35;;
43628;SDS011;56545;48.224;11.678;2023-01-08T14:23:44;8.52;;;3.80;;
43628;SDS011;56545;48.224;11.678;2023-01-08T14:26:24;7.00;;;3.65;;
43628;SDS011;56545;48.224;11.678;2023-01-08T14:29:12;9.73;;;3.58;;
43628;SDS011;56545;48.224;11.678;2023-01-08T14:31:46;7.50;;;3.50;;
43628;SDS011;56545;48.224;11.678;2023-01-08T14:34:14;7.57;;;3.40;;
43628;SDS011;56545;48.224;11.678;2023-01-08T14:36:40;7.72;;;3.80;;
43628;SDS011;56545;48.224;11.678;2023-01-08T14:42:00;28.23;;;4.50;;
43628;SDS011;56545;48.224;11.678;2023-01-08T14:44:58;7.38;;;3.80;;
43628;SDS011;56545;48.224;11.678;2023-01-08T14:47:31;6.93;;;3.53;;
43628;SDS011;56545;48.224;11.678;2023-01-08T14:50:02;7.97;;;3.50;;
43628;SDS011;56545;48.224;11.678;2023-01-08T14:52:28;24.50;;;15.50;;
43628;SDS011;56545;48.224;11.678;2023-01-08T14:54:55;27.85;;;17.77;;
43628;SDS011;56545;48.224;11.678;2023-01-08T14:57:24;8.68;;;4.63;;
43628;SDS011;56545;48.224;11.678;2023-01-08T14:59:52;10.82;;;5.07;;
43628;SDS011;56545;48.224;11.678;2023-01-08T15:02:25;7.82;;;4.05;;
43628;SDS011;56545;48.224;11.678;2023-01-08T15:05:00;7.25;;;3.35;;
43628;SDS011;56545;48.224;11.678;2023-01-08T15:10:56;7.78;;;3.80;;
43628;SDS011;56545;48.224;11.678;2023-01-08T15:13:41;9.02;;;3.20;;
43628;SDS011;56545;48.224;11.678;2023-01-08T15:16:10;5.70;;;2.83;;
43628;SDS011;56545;48.224;11.678;2023-01-08T15:18:46;6.35;;;2.58;;
43628;SDS011;56545;48.224;11.678;2023-01-08T15:21:17;6.57;;;3.78;;
43628;SDS011;56545;48.224;11.678;2023-01-08T15:23:45;5.65;;;2.80;;
43628;SDS011;56545;48.224;11.678;2023-01-08T15:26:14;6.03;;;2.50;;
43628;SDS011;56545;48.224;11.678;2023-01-08T15:28:44;5.93;;;2.40;;
43628;SDS011;56545;48.224;11.678;2023-01-08T15:33:54;5.57;;;2.65;;
43628;SDS011;56545;48.224;11.678;2023-01-08T15:36:21;6.50;;;2.97;;
43628;SDS011;56545;48.224;11.678;2023-01-08T15:38:48;7.45;;;3.05;;
43628;SDS011;56545;48.224;11.678;2023-01-08T15:41:15;7.70;;;3.25;;
43628;SDS011;56545;48.224;11.678;2023-01-08T15:44:03;5.30;;;2.53;;
43628;SDS011;56545;48.224;11.678;2023-01-08T15:46:29;5.72;;;2.33;;
43628;SDS011;56545;48.224;11.678;2023-01-08T15:48:55;7.68;;;2.67;;
43628;SDS011;56545;48.224;11.678;2023-01-08T15:51:21;5.35;;;2.55;;
43628;SDS011;56545;48.224;11.678;2023-01-08T15:53:47;6.63;;;2.33;;
43628;SDS011;56545;48.224;11.678;2023-01-08T15:56:13;4.65;;;2.30;;
43628;SDS011;56545;48.224;11.678;2023-01-08T15:58:39;11.23;;;6.10;;
43628;SDS011;56545;48.224;11.678;2023-01-08T16:01:05;10.05;;;5.57;;
43628;SDS011;56545;48.224;11.678;2023-01-08T16:03:32;7.13;;;3.88;;
43628;SDS011;56545;48.224;11.678;2023-01-08T16:05:58;7.40;;;3.70;;
43628;SDS011;56545;48.224;11.678;2023-01-08T16:08:24;7.22;;;3.75;;
43628;SDS011;56545;48.224;11.678;2023-01-08T16:10:50;8.40;;;3.95;;
43628;SDS011;56545;48.224;11.678;2023-01-08T16:13:16;9.60;;;4.10;;
43628;SDS011;56545;48.224;11.678;2023-01-08T16:15:42;9.07;;;3.85;;
43628;SDS011;56545;48.224;11.678;2023-01-08T16:18:08;7.30;;;3.50;;
43628;SDS011;56545;48.224;11.678;2023-01-08T16:20:35;7.50;;;3.80;;